Ovid, New York
Current Conditions -  °F | °C
As of 12:03 AM on Tuesday 27 Jan 2015 (Local Time) from KPEO Reporting Station
Light Snow Light Snow  
Wind Chill:   Ceiling: 1000
Heat Index: 16°   Visibility: 3mi
Dew Point: 12°   Wind: 6mph
Humidity: 84%   Direction: 350°N
Pressure: 29.88"   Gusts: NA
Location:  42.68°N, 76.82°W
Report Text: KPEO 270503Z AUTO 35005KT 3SM -SN BR BKN010 OVC041 M09/M11 A2988 RMK AO2 P0000 T10891111
Loading
Personal Weather Stations






























Interactive Weather Map New forecast layout! Learn more

10-Day Weather Forecast

Advertisements
Track Severe Weather on mobile